Carrier, Oklahoma
Current Conditions -  °F | °C
As of 8:58 AM on Monday 22 Dec 2014 (Local Time) from KEND Reporting Station
Broken Clouds Broken Clouds  
Wind Chill: 42°   Ceiling: 2300
Heat Index: 46°   Visibility: 10mi
Dew Point: 45°   Wind: 9mph
Humidity: 93%   Direction: 280°W
Pressure: 29.58"   Gusts: NA
Location:  36.48°N, 98.02°W
Report Text: KEND 221458Z 28008KT 10SM FEW013 BKN023 08/07 A2958 RMK AO2A SLP020 52014
Loading
Personal Weather Stations






























Interactive Weather Map New forecast layout! Learn more

10-Day Weather Forecast

Advertisements
Track Severe Weather on mobile